createdAt,value
2023-02-27T00:00:30.656Z,0.53
2023-02-27T00:02:59.876Z,0.40
2023-02-27T00:05:29.369Z,0.60
2023-02-27T00:07:57.308Z,0.50
2023-02-27T00:10:25.639Z,0.50
2023-02-27T00:12:53.637Z,0.50
2023-02-27T00:15:22.670Z,0.43
2023-02-27T00:17:51.266Z,0.30
2023-02-27T00:20:21.865Z,0.40
2023-02-27T00:22:51.973Z,0.60
2023-02-27T00:25:20.320Z,0.57
2023-02-27T00:27:50.542Z,0.40
2023-02-27T00:30:18.790Z,0.40
2023-02-27T00:32:46.942Z,0.60
2023-02-27T00:35:15.566Z,0.63
2023-02-27T00:37:43.527Z,0.40
2023-02-27T00:40:14.228Z,0.40
2023-02-27T00:42:42.448Z,0.30
2023-02-27T00:45:11.196Z,0.43
2023-02-27T00:47:39.068Z,0.43
2023-02-27T00:50:08.044Z,0.40
2023-02-27T00:52:37.957Z,0.40
2023-02-27T00:55:06.693Z,0.40
2023-02-27T00:57:38.670Z,0.40
2023-02-27T01:00:08.680Z,0.40
2023-02-27T01:02:36.659Z,0.40
2023-02-27T01:05:10.237Z,0.50
2023-02-27T01:07:39.430Z,0.50
2023-02-27T01:10:08.802Z,0.40
2023-02-27T01:12:38.257Z,0.40
2023-02-27T01:15:08.439Z,0.50
2023-02-27T01:17:36.502Z,0.40
2023-02-27T01:20:07.725Z,0.40
2023-02-27T01:22:36.092Z,0.50
2023-02-27T01:25:04.732Z,0.40
2023-02-27T01:27:32.598Z,0.50
2023-02-27T01:30:01.922Z,0.50
2023-02-27T01:32:30.118Z,0.40
2023-02-27T01:34:58.349Z,0.50
2023-02-27T01:37:26.329Z,0.40
2023-02-27T01:39:57.536Z,0.40
2023-02-27T01:42:28.274Z,0.50
2023-02-27T01:45:35.035Z,0.40
2023-02-27T01:48:16.361Z,0.30
2023-02-27T01:50:55.262Z,0.40
2023-02-27T01:53:38.146Z,0.40
2023-02-27T01:56:13.571Z,0.50
2023-02-27T01:59:04.040Z,0.40
2023-02-27T02:01:35.970Z,0.50
2023-02-27T02:04:11.375Z,0.60
2023-02-27T02:06:43.898Z,0.40
2023-02-27T02:09:22.829Z,0.40
2023-02-27T02:11:58.751Z,0.40
2023-02-27T02:14:27.659Z,0.40
2023-02-27T02:17:11.329Z,0.40
2023-02-27T02:20:14.955Z,0.47
2023-02-27T02:23:36.430Z,0.30
2023-02-27T02:26:29.277Z,0.50
2023-02-27T02:29:32.592Z,0.40
2023-02-27T02:32:31.759Z,0.30
2023-02-27T02:35:37.648Z,0.40
2023-02-27T02:38:44.694Z,0.37
2023-02-27T02:41:20.123Z,0.40
2023-02-27T02:44:01.216Z,0.33
2023-02-27T02:46:35.511Z,0.40
2023-02-27T02:49:15.473Z,0.40
2023-02-27T02:51:50.335Z,0.40
2023-02-27T02:54:26.178Z,0.40
2023-02-27T02:57:03.310Z,0.40
2023-02-27T02:59:36.508Z,0.50
2023-02-27T03:02:08.740Z,0.40
2023-02-27T03:04:41.180Z,0.40
2023-02-27T03:07:16.124Z,0.30
2023-02-27T03:09:58.399Z,0.33
2023-02-27T03:12:32.733Z,0.53
2023-02-27T03:15:06.288Z,0.50
2023-02-27T03:17:41.186Z,0.40
2023-02-27T03:20:12.473Z,0.40
2023-02-27T03:22:46.868Z,0.40
2023-02-27T03:25:16.832Z,0.40
2023-02-27T03:27:48.767Z,0.60
2023-02-27T03:30:21.663Z,0.40
2023-02-27T03:32:56.884Z,0.50
2023-02-27T03:35:32.850Z,0.50
2023-02-27T03:38:08.297Z,0.40
2023-02-27T03:40:43.846Z,0.40
2023-02-27T03:43:21.050Z,0.43
2023-02-27T03:45:57.365Z,0.40
2023-02-27T03:48:25.736Z,0.40
2023-02-27T03:50:54.895Z,0.40
2023-02-27T03:53:28.833Z,0.30
2023-02-27T03:55:59.758Z,0.40
2023-02-27T03:58:27.786Z,0.40
2023-02-27T04:00:56.417Z,0.40
2023-02-27T04:03:24.861Z,0.40
2023-02-27T04:05:53.756Z,0.40
2023-02-27T04:08:49.685Z,0.33
2023-02-27T04:11:33.391Z,0.40
2023-02-27T04:14:23.978Z,0.40
2023-02-27T04:17:02.625Z,0.40
2023-02-27T04:19:53.328Z,0.40
2023-02-27T04:22:32.784Z,0.40
2023-02-27T04:25:17.142Z,0.60
2023-02-27T04:27:55.953Z,0.60
2023-02-27T04:30:29.813Z,0.60
2023-02-27T04:33:03.500Z,0.50
2023-02-27T04:35:38.523Z,0.50
2023-02-27T04:38:13.036Z,0.50
2023-02-27T04:40:49.546Z,0.30
2023-02-27T04:43:21.590Z,0.50
2023-02-27T04:45:51.679Z,0.50
2023-02-27T04:48:26.004Z,0.50
2023-02-27T04:50:59.731Z,0.40
2023-02-27T04:53:32.262Z,0.40
2023-02-27T04:56:05.005Z,0.50
2023-02-27T04:58:38.268Z,0.40
2023-02-27T05:01:13.149Z,0.40
2023-02-27T05:03:45.698Z,0.40
2023-02-27T05:06:16.478Z,0.40
2023-02-27T05:08:50.699Z,0.40
2023-02-27T05:11:27.108Z,0.40
2023-02-27T05:14:00.070Z,0.60
2023-02-27T05:16:34.462Z,0.40
2023-02-27T05:19:03.094Z,0.40
2023-02-27T05:21:35.560Z,0.40
2023-02-27T05:24:13.882Z,0.40
2023-02-27T05:27:11.061Z,0.40
2023-02-27T05:29:46.458Z,0.40
2023-02-27T05:32:23.765Z,0.67
2023-02-27T05:34:55.897Z,0.50
2023-02-27T05:37:28.773Z,0.43
2023-02-27T05:39:56.822Z,0.40
2023-02-27T05:42:30.774Z,0.40
2023-02-27T05:45:06.909Z,0.40
2023-02-27T05:47:38.670Z,0.40
2023-02-27T05:50:11.500Z,0.50
2023-02-27T05:52:42.072Z,0.50
2023-02-27T05:55:17.048Z,0.50
2023-02-27T05:58:03.091Z,0.50
2023-02-27T06:00:38.089Z,0.40
2023-02-27T06:03:10.912Z,0.40
2023-02-27T06:05:45.972Z,0.50
2023-02-27T06:08:22.532Z,0.50
2023-02-27T06:10:51.861Z,0.50
2023-02-27T06:13:21.098Z,0.50
2023-02-27T06:15:51.695Z,0.40
2023-02-27T06:18:20.294Z,0.40
2023-02-27T06:20:48.552Z,0.60
2023-02-27T06:23:17.244Z,0.50
2023-02-27T06:25:45.698Z,0.40
2023-02-27T06:28:13.726Z,0.40
2023-02-27T06:30:42.076Z,0.50
2023-02-27T06:33:13.495Z,0.40
2023-02-27T06:35:42.444Z,0.40
2023-02-27T06:38:11.074Z,0.50
2023-02-27T06:40:39.279Z,0.40
2023-02-27T06:43:08.755Z,0.40
2023-02-27T06:45:40.724Z,0.37
2023-02-27T06:48:08.731Z,0.50
2023-02-27T06:50:38.138Z,0.43
2023-02-27T06:53:07.029Z,0.50
2023-02-27T06:55:34.896Z,0.50
2023-02-27T06:58:03.879Z,0.50
2023-02-27T07:00:32.004Z,0.43
2023-02-27T07:03:00.534Z,0.40
2023-02-27T07:05:29.584Z,0.50
2023-02-27T07:08:00.265Z,0.50
2023-02-27T07:10:28.895Z,0.30
2023-02-27T07:12:57.014Z,0.50
2023-02-27T07:15:27.801Z,0.40
2023-02-27T07:17:55.856Z,0.47
2023-02-27T07:20:27.439Z,0.40
2023-02-27T07:22:55.415Z,0.60
2023-02-27T07:25:27.759Z,0.50
2023-02-27T07:27:56.118Z,0.40
2023-02-27T07:30:24.471Z,0.40
2023-02-27T07:32:53.071Z,0.40
2023-02-27T07:35:21.135Z,0.30
2023-02-27T07:37:49.508Z,0.47
2023-02-27T07:40:17.759Z,0.40
2023-02-27T07:42:48.709Z,0.40
2023-02-27T07:45:20.806Z,0.40
2023-02-27T07:47:49.594Z,0.30
2023-02-27T07:50:18.470Z,0.30
2023-02-27T07:52:47.055Z,0.33
2023-02-27T07:55:15.305Z,0.30
2023-02-27T07:57:43.361Z,0.30
2023-02-27T08:00:14.360Z,0.40
2023-02-27T08:02:42.485Z,0.40
2023-02-27T08:05:10.924Z,0.40
2023-02-27T08:07:39.137Z,0.40
2023-02-27T08:10:08.346Z,0.30
2023-02-27T08:12:36.541Z,0.40
2023-02-27T08:15:05.266Z,0.40
2023-02-27T08:17:34.694Z,0.37
2023-02-27T08:20:02.851Z,0.40
2023-02-27T08:22:31.977Z,0.50
2023-02-27T08:25:01.321Z,0.40
2023-02-27T08:27:30.663Z,0.30
2023-02-27T08:29:59.167Z,0.60
2023-02-27T08:32:28.888Z,0.30
2023-02-27T08:34:59.658Z,0.40
2023-02-27T08:37:27.684Z,0.20
2023-02-27T08:39:55.918Z,0.30
2023-02-27T08:42:26.565Z,0.30
2023-02-27T08:44:54.721Z,0.30
2023-02-27T08:47:22.657Z,0.40
2023-02-27T08:49:50.717Z,0.40
2023-02-27T08:52:22.843Z,0.40
2023-02-27T08:54:53.703Z,0.30
2023-02-27T08:57:22.052Z,0.30
2023-02-27T08:59:51.135Z,0.30
2023-02-27T09:02:19.376Z,0.30
2023-02-27T09:04:47.721Z,0.40
2023-02-27T09:07:16.047Z,0.20
2023-02-27T09:09:49.096Z,0.20
2023-02-27T09:12:17.988Z,0.40
2023-02-27T09:14:45.908Z,0.30
2023-02-27T09:17:14.505Z,0.20
2023-02-27T09:19:42.501Z,0.30
2023-02-27T09:22:10.568Z,0.30
2023-02-27T09:24:41.444Z,0.30
2023-02-27T09:27:10.711Z,0.30
2023-02-27T09:29:38.613Z,0.40
2023-02-27T09:32:06.922Z,0.30
2023-02-27T09:34:36.461Z,0.30
2023-02-27T09:37:04.809Z,0.40
2023-02-27T09:39:36.933Z,0.40
2023-02-27T09:42:12.460Z,0.30
2023-02-27T09:44:47.708Z,0.33
2023-02-27T09:47:22.320Z,0.30
2023-02-27T09:50:00.051Z,0.40
2023-02-27T09:52:29.280Z,0.40
2023-02-27T09:58:42.119Z,0.30
2023-02-27T10:01:17.324Z,0.23
2023-02-27T10:04:05.971Z,0.27
2023-02-27T10:06:43.609Z,0.20
2023-02-27T10:09:32.511Z,0.20
2023-02-27T10:12:22.750Z,0.20
2023-02-27T10:14:55.586Z,0.20
2023-02-27T10:17:29.899Z,0.30
2023-02-27T10:20:03.683Z,0.20
2023-02-27T10:23:19.056Z,0.23
2023-02-27T10:25:53.642Z,0.30
2023-02-27T10:28:23.938Z,0.20
2023-02-27T10:30:55.489Z,0.20
2023-02-27T10:33:28.475Z,0.20
2023-02-27T10:35:57.820Z,0.20
2023-02-27T10:38:33.431Z,0.20
2023-02-27T10:41:07.812Z,0.20
2023-02-27T10:43:36.666Z,0.20
2023-02-27T10:46:13.179Z,0.20
2023-02-27T10:48:43.022Z,0.20
2023-02-27T10:51:28.851Z,0.27
2023-02-27T10:54:15.769Z,0.23
2023-02-27T10:56:48.854Z,0.20
2023-02-27T10:59:22.262Z,0.20
2023-02-27T11:01:52.745Z,0.20
2023-02-27T11:04:33.123Z,0.20
2023-02-27T11:07:04.414Z,0.30
2023-02-27T11:09:34.230Z,0.23
2023-02-27T11:12:14.695Z,0.20
2023-02-27T11:15:02.072Z,0.20
2023-02-27T11:17:32.777Z,0.20
2023-02-27T11:20:06.549Z,0.20
2023-02-27T11:22:36.737Z,0.20
2023-02-27T11:25:20.470Z,0.30
2023-02-27T11:27:49.126Z,0.20
2023-02-27T11:30:32.073Z,0.30
2023-02-27T11:33:02.887Z,0.20
2023-02-27T11:35:35.389Z,0.20
2023-02-27T11:38:06.642Z,0.20
2023-02-27T11:40:39.490Z,0.20
2023-02-27T11:43:17.926Z,0.27
2023-02-27T11:46:18.098Z,0.20
2023-02-27T11:48:43.511Z,0.30
2023-02-27T11:51:55.084Z,0.20
2023-02-27T11:54:37.226Z,0.20
2023-02-27T11:57:15.948Z,0.23
2023-02-27T11:59:49.143Z,0.23
2023-02-27T12:02:26.555Z,0.30
2023-02-27T12:04:59.484Z,0.20
2023-02-27T12:07:34.496Z,0.30
2023-02-27T12:10:07.471Z,0.20
2023-02-27T12:12:45.300Z,0.20
2023-02-27T12:15:27.850Z,0.20
2023-02-27T12:18:14.804Z,0.20
2023-02-27T12:20:52.282Z,0.20
2023-02-27T12:23:30.342Z,0.20
2023-02-27T12:26:05.439Z,0.20
2023-02-27T12:28:52.220Z,0.20
2023-02-27T12:31:46.827Z,0.20
2023-02-27T12:34:26.067Z,0.30
2023-02-27T12:36:55.015Z,0.20
2023-02-27T12:39:26.396Z,0.20
2023-02-27T12:42:25.747Z,0.20
2023-02-27T12:45:16.745Z,0.20
2023-02-27T12:47:52.931Z,0.20
2023-02-27T12:50:33.321Z,0.20
2023-02-27T12:53:14.845Z,0.30
2023-02-27T12:55:49.854Z,0.30
2023-02-27T12:58:36.678Z,0.30
2023-02-27T13:01:35.845Z,0.20
2023-02-27T13:04:11.408Z,0.23
2023-02-27T13:06:48.612Z,0.27
2023-02-27T13:09:26.720Z,0.20
2023-02-27T13:12:10.173Z,0.23
2023-02-27T13:14:48.794Z,0.20
2023-02-27T13:17:24.446Z,0.27
2023-02-27T13:19:56.392Z,0.20
2023-02-27T13:22:35.359Z,0.20
2023-02-27T13:25:11.622Z,0.20
2023-02-27T13:27:46.392Z,0.23
2023-02-27T13:30:21.852Z,0.20
2023-02-27T13:33:01.054Z,0.20
2023-02-27T13:35:40.860Z,0.30
2023-02-27T13:38:32.061Z,0.20
2023-02-27T13:41:39.943Z,0.20
2023-02-27T13:44:48.663Z,0.20
2023-02-27T13:47:52.177Z,0.20
2023-02-27T13:50:53.511Z,0.20
2023-02-27T13:53:25.455Z,0.20
2023-02-27T13:56:16.058Z,0.20
2023-02-27T13:58:45.049Z,0.20
2023-02-27T14:01:19.116Z,0.20
2023-02-27T14:03:55.040Z,0.20
2023-02-27T14:06:27.428Z,0.20
2023-02-27T14:09:14.345Z,0.20
2023-02-27T14:11:54.935Z,0.20
2023-02-27T14:14:45.509Z,0.20
2023-02-27T14:17:15.466Z,0.20
2023-02-27T14:20:06.607Z,0.20
2023-02-27T14:23:10.233Z,0.20
2023-02-27T14:25:43.123Z,0.20
2023-02-27T14:28:24.989Z,0.20
2023-02-27T14:30:57.441Z,0.20
2023-02-27T14:37:17.493Z,0.27
2023-02-27T14:39:49.131Z,0.20
2023-02-27T14:42:38.092Z,0.20
2023-02-27T14:45:13.829Z,0.20
2023-02-27T14:47:42.327Z,0.20
2023-02-27T14:50:24.540Z,0.30
2023-02-27T14:52:52.776Z,0.20
2023-02-27T14:55:28.003Z,0.20
2023-02-27T14:58:01.055Z,0.20
2023-02-27T15:00:34.985Z,0.20
2023-02-27T15:03:20.504Z,0.20
2023-02-27T15:05:54.951Z,0.20
2023-02-27T15:08:26.390Z,0.20
2023-02-27T15:10:56.758Z,0.20
2023-02-27T15:13:30.058Z,0.20
2023-02-27T15:16:43.897Z,0.20
2023-02-27T15:19:16.321Z,0.20
2023-02-27T15:21:47.087Z,0.20
2023-02-27T15:24:26.001Z,0.20
2023-02-27T15:26:57.399Z,0.23
2023-02-27T15:29:33.938Z,0.20
2023-02-27T15:32:03.031Z,0.20
2023-02-27T15:34:32.245Z,0.30
2023-02-27T15:37:03.884Z,0.20
2023-02-27T15:39:35.570Z,0.30
2023-02-27T15:42:21.452Z,0.20
2023-02-27T15:44:52.953Z,0.23
2023-02-27T15:47:25.857Z,0.20
2023-02-27T15:50:24.119Z,0.30
2023-02-27T15:52:54.429Z,0.20
2023-02-27T15:55:31.768Z,0.20
2023-02-27T15:58:03.407Z,0.30
2023-02-27T16:00:37.235Z,0.20
2023-02-27T16:03:07.836Z,0.30
2023-02-27T16:05:38.057Z,0.30
2023-02-27T16:08:07.366Z,0.30
2023-02-27T16:10:39.328Z,0.40
2023-02-27T16:13:31.752Z,0.33
2023-02-27T16:16:05.854Z,0.20
2023-02-27T16:18:38.255Z,0.30
2023-02-27T16:21:14.185Z,0.27
2023-02-27T16:23:44.088Z,0.37
2023-02-27T16:26:30.532Z,0.30
2023-02-27T16:29:02.700Z,0.30
2023-02-27T16:31:36.740Z,0.30
2023-02-27T16:34:16.594Z,0.30
2023-02-27T16:36:54.167Z,0.30
2023-02-27T16:39:22.338Z,0.30
2023-02-27T16:41:50.666Z,0.30
2023-02-27T16:44:18.544Z,0.30
2023-02-27T16:46:48.165Z,0.30
2023-02-27T16:49:22.417Z,0.20
2023-02-27T16:51:51.151Z,0.30
2023-02-27T16:54:20.443Z,0.30
2023-02-27T16:56:50.236Z,0.30
2023-02-27T16:59:30.980Z,0.40
2023-02-27T17:02:03.485Z,0.40
2023-02-27T17:04:31.855Z,0.40
2023-02-27T17:07:06.636Z,0.40
2023-02-27T17:09:35.220Z,0.50
2023-02-27T17:12:04.681Z,0.40
2023-02-27T17:14:33.023Z,0.40
2023-02-27T17:17:08.008Z,0.40
2023-02-27T17:19:36.040Z,0.50
2023-02-27T17:22:04.227Z,0.40
2023-02-27T17:24:34.945Z,0.50
2023-02-27T17:27:03.229Z,0.40
2023-02-27T17:29:32.219Z,0.53
2023-02-27T17:32:00.951Z,0.50
2023-02-27T17:34:31.815Z,0.53
2023-02-27T17:37:02.866Z,0.50
2023-02-27T17:39:33.447Z,0.30
2023-02-27T17:42:01.412Z,0.40
2023-02-27T17:44:30.198Z,0.43
2023-02-27T17:47:00.894Z,0.50
2023-02-27T17:49:29.004Z,0.43
2023-02-27T17:52:00.637Z,0.40
2023-02-27T17:54:30.946Z,0.50
2023-02-27T17:57:00.197Z,0.40
2023-02-27T17:59:28.373Z,0.50
2023-02-27T18:01:56.533Z,0.50
2023-02-27T18:04:24.517Z,0.40
2023-02-27T18:06:52.765Z,0.40
2023-02-27T18:09:22.423Z,0.50
2023-02-27T18:11:53.170Z,0.50
2023-02-27T18:14:21.245Z,0.70
2023-02-27T18:16:49.466Z,0.40
2023-02-27T18:19:18.317Z,0.47
2023-02-27T18:21:47.157Z,0.40
2023-02-27T18:24:17.261Z,0.40
2023-02-27T18:26:46.739Z,0.40
2023-02-27T18:29:16.265Z,0.60
2023-02-27T18:31:54.588Z,0.50
2023-02-27T18:34:23.187Z,0.37
2023-02-27T18:36:59.238Z,0.47
2023-02-27T18:39:28.109Z,0.40
2023-02-27T18:42:06.659Z,0.40
2023-02-27T18:44:52.945Z,0.60
2023-02-27T18:47:21.878Z,0.47
2023-02-27T18:49:53.645Z,0.40
2023-02-27T18:52:21.867Z,0.43
2023-02-27T18:54:51.028Z,0.40
2023-02-27T18:57:23.192Z,0.40
2023-02-27T18:59:57.403Z,0.40
2023-02-27T19:02:25.464Z,0.50
2023-02-27T19:04:53.583Z,0.50
2023-02-27T19:07:23.363Z,0.40
2023-02-27T19:09:52.311Z,0.40
2023-02-27T19:12:23.586Z,0.50
2023-02-27T19:14:53.020Z,0.40
2023-02-27T19:17:21.382Z,0.40
2023-02-27T19:19:50.793Z,0.43
2023-02-27T19:22:21.268Z,0.37
2023-02-27T19:24:51.258Z,0.40
2023-02-27T19:27:19.349Z,0.40
2023-02-27T19:29:49.112Z,0.40
2023-02-27T19:32:17.870Z,0.40
2023-02-27T19:34:50.189Z,0.40
2023-02-27T19:37:18.248Z,0.40
2023-02-27T19:39:51.832Z,0.40
2023-02-27T19:42:20.675Z,0.40
2023-02-27T19:44:50.219Z,0.40
2023-02-27T19:47:18.193Z,0.30
2023-02-27T19:49:48.063Z,0.40
2023-02-27T19:52:16.514Z,0.50
2023-02-27T19:54:46.200Z,0.40
2023-02-27T19:57:17.769Z,0.40
2023-02-27T19:59:46.869Z,0.40
2023-02-27T20:02:16.163Z,0.43
2023-02-27T20:04:44.648Z,0.30
2023-02-27T20:07:12.781Z,0.50
2023-02-27T20:09:40.896Z,0.43
2023-02-27T20:12:11.118Z,0.43
2023-02-27T20:14:40.273Z,0.40
2023-02-27T20:17:10.758Z,0.40
2023-02-27T20:19:54.144Z,0.30
2023-02-27T20:22:23.100Z,0.40
2023-02-27T20:24:51.394Z,0.40
2023-02-27T20:27:21.693Z,0.50
2023-02-27T20:29:54.596Z,0.43
2023-02-27T20:32:23.433Z,0.43
2023-02-27T20:34:52.312Z,0.40
2023-02-27T20:37:24.202Z,0.40
2023-02-27T20:39:52.366Z,0.40
2023-02-27T20:42:22.535Z,0.40
2023-02-27T20:44:50.883Z,0.50
2023-02-27T20:47:19.245Z,0.40
2023-02-27T20:49:47.512Z,0.40
2023-02-27T20:52:15.558Z,0.40
2023-02-27T20:54:45.187Z,0.50
2023-02-27T20:57:13.498Z,0.50
2023-02-27T20:59:41.613Z,0.40
2023-02-27T21:02:11.054Z,0.47
2023-02-27T21:04:47.454Z,0.40
2023-02-27T21:07:17.871Z,0.50
2023-02-27T21:09:47.778Z,0.40
2023-02-27T21:12:17.471Z,0.40
2023-02-27T21:14:46.591Z,0.40
2023-02-27T21:17:40.192Z,0.30
2023-02-27T21:20:10.160Z,0.40
2023-02-27T21:22:39.915Z,0.43
2023-02-27T21:25:10.438Z,0.40
2023-02-27T21:27:41.165Z,0.50
2023-02-27T21:30:14.232Z,0.40
2023-02-27T21:32:42.518Z,0.40
2023-02-27T21:35:16.452Z,0.40
2023-02-27T21:37:46.793Z,0.40
2023-02-27T21:40:17.495Z,0.47
2023-02-27T21:42:45.919Z,0.40
2023-02-27T21:45:16.822Z,0.40
2023-02-27T21:47:44.836Z,0.43
2023-02-27T21:50:14.861Z,0.50
2023-02-27T21:52:43.467Z,0.40
2023-02-27T21:55:18.059Z,0.47
2023-02-27T21:57:47.712Z,0.40
2023-02-27T22:00:17.723Z,0.57
2023-02-27T22:02:52.070Z,0.40
2023-02-27T22:05:20.705Z,0.43
2023-02-27T22:07:51.580Z,0.40
2023-02-27T22:10:26.465Z,0.60
2023-02-27T22:12:54.444Z,0.50
2023-02-27T22:15:22.900Z,0.50
2023-02-27T22:17:52.360Z,0.50
2023-02-27T22:20:20.710Z,0.47
2023-02-27T22:22:51.262Z,0.40
2023-02-27T22:25:20.830Z,0.43
2023-02-27T22:27:49.621Z,0.40
2023-02-27T22:30:17.864Z,0.40
2023-02-27T22:32:48.088Z,0.40
2023-02-27T22:35:18.914Z,0.40
2023-02-27T22:37:46.992Z,0.40
2023-02-27T22:40:16.416Z,0.53
2023-02-27T22:42:46.537Z,0.40
2023-02-27T22:45:14.955Z,0.47
2023-02-27T22:47:42.812Z,0.37
2023-02-27T22:50:12.047Z,0.40
2023-02-27T22:52:47.011Z,0.40
2023-02-27T22:55:18.462Z,0.40
2023-02-27T22:57:52.748Z,0.40
2023-02-27T23:00:33.535Z,0.40
2023-02-27T23:03:20.009Z,0.40
2023-02-27T23:05:48.893Z,0.40
2023-02-27T23:08:28.118Z,0.40
2023-02-27T23:10:57.398Z,0.40
2023-02-27T23:13:33.616Z,0.40
2023-02-27T23:16:20.288Z,0.40
2023-02-27T23:18:54.491Z,0.40
2023-02-27T23:21:26.715Z,0.50
2023-02-27T23:23:57.477Z,0.40
2023-02-27T23:26:28.628Z,0.50
2023-02-27T23:28:58.694Z,0.50
2023-02-27T23:31:27.549Z,0.40
2023-02-27T23:34:00.307Z,0.40
2023-02-27T23:36:28.520Z,0.40
2023-02-27T23:39:04.189Z,0.50
2023-02-27T23:41:32.510Z,0.50
2023-02-27T23:44:21.601Z,0.40
2023-02-27T23:46:49.729Z,0.47
2023-02-27T23:49:17.962Z,0.40
2023-02-27T23:51:46.127Z,0.50
2023-02-27T23:54:14.223Z,0.40
2023-02-27T23:56:59.899Z,0.40
2023-02-27T23:59:30.897Z,0.30
